Time;durP1;ratioP1;P1;durP2;ratioP2;P2;SDS_P1;SDS_P2;PMS_P1;PMS_P2;Temp;Humidity;BMP_temperature;BMP_pressure;BME280_temperature;BME280_humidity;BME280_pressure;Samples;Min_cycle;Max_cycle;Signal;HPM_P1;HPM_P2
2023/03/14 00:01:48;;;;;;;3.75;1.42;;;11.00;99.90;;;;;;4996327;28;20031;-75
2023/03/14 00:04:14;;;;;;;4.13;0.82;;;11.00;99.90;;;;;;4996426;28;20023;-74
2023/03/14 00:06:40;;;;;;;0.28;0.20;;;10.90;99.90;;;;;;4996007;28;20117;-75
2023/03/14 00:09:06;;;;;;;1.75;0.75;;;10.90;99.90;;;;;;4996351;28;20029;-75
2023/03/14 00:11:32;;;;;;;5.60;0.95;;;10.90;99.90;;;;;;4995154;28;20488;-74
2023/03/14 00:13:59;;;;;;;5.13;1.75;;;10.70;99.90;;;;;;4994753;28;20109;-74
2023/03/14 00:16:25;;;;;;;11.95;2.10;;;10.70;99.90;;;;;;4996151;28;20023;-74
2023/03/14 00:18:51;;;;;;;0.35;0.22;;;10.80;99.90;;;;;;4996011;28;20467;-74
2023/03/14 00:21:17;;;;;;;1.17;0.20;;;10.80;99.90;;;;;;4995756;28;20173;-74
2023/03/14 00:23:43;;;;;;;0.25;0.25;;;10.80;99.90;;;;;;4996059;28;20145;-74
2023/03/14 00:26:12;;;;;;;1.23;0.85;;;10.90;99.90;;;;;;4996113;28;20109;-74
2023/03/14 00:28:39;;;;;;;2.72;0.65;;;10.90;99.90;;;;;;4995755;28;20069;-74
2023/03/14 00:31:06;;;;;;;2.47;0.75;;;10.90;99.90;;;;;;4996037;28;20045;-74
2023/03/14 00:33:33;;;;;;;3.72;1.13;;;10.90;99.90;;;;;;4995774;28;20080;-74
2023/03/14 00:36:02;;;;;;;2.17;0.70;;;10.90;99.90;;;;;;4994333;28;20114;-74
2023/03/14 00:38:30;;;;;;;4.10;1.20;;;10.90;99.90;;;;;;4995877;28;20422;-74
2023/03/14 00:40:57;;;;;;;3.03;0.73;;;10.90;99.90;;;;;;4995608;28;20116;-74
2023/03/14 00:43:23;;;;;;;1.02;0.35;;;10.90;99.90;;;;;;4995577;28;20109;-74
2023/03/14 00:45:52;;;;;;;4.55;1.42;;;10.90;99.90;;;;;;4994203;28;20027;-74
2023/03/14 00:48:19;;;;;;;1.15;0.43;;;10.90;99.90;;;;;;4995353;28;20038;-74
2023/03/14 00:50:46;;;;;;;0.80;0.50;;;10.90;99.90;;;;;;4993926;28;20030;-74
2023/03/14 00:53:14;;;;;;;0.20;0.20;;;11.00;99.90;;;;;;4995401;28;20030;-74
2023/03/14 00:55:42;;;;;;;4.00;1.42;;;10.80;99.90;;;;;;4994246;28;20445;-75
2023/03/14 00:58:08;;;;;;;2.63;0.88;;;10.90;99.90;;;;;;4995531;28;20072;-75
2023/03/14 01:00:35;;;;;;;2.40;0.85;;;11.00;99.90;;;;;;4993974;28;20125;-74
2023/03/14 01:03:01;;;;;;;0.65;0.40;;;10.90;99.90;;;;;;4995453;28;20035;-74
2023/03/14 01:05:28;;;;;;;3.20;0.68;;;11.00;99.90;;;;;;4993522;28;20033;-74
2023/03/14 01:07:54;;;;;;;2.00;0.95;;;10.90;99.90;;;;;;4995416;28;20026;-74
2023/03/14 01:10:19;;;;;;;2.00;0.77;;;10.90;99.90;;;;;;4995010;28;20387;-74
2023/03/14 01:12:45;;;;;;;4.18;0.43;;;10.80;99.90;;;;;;4985184;28;20034;-74
2023/03/14 01:15:11;;;;;;;3.63;1.20;;;10.70;99.90;;;;;;4974803;28;20022;-74
2023/03/14 01:17:40;;;;;;;4.32;0.80;;;10.70;99.90;;;;;;4993890;28;20364;-74
2023/03/14 01:20:09;;;;;;;12.15;2.15;;;10.80;99.90;;;;;;4993517;28;20030;-74
2023/03/14 01:22:38;;;;;;;6.53;1.63;;;10.70;99.90;;;;;;4993578;28;20588;-74
2023/03/14 01:25:08;;;;;;;1.98;0.70;;;10.70;99.90;;;;;;4993737;28;20109;-74
2023/03/14 01:27:34;;;;;;;7.00;0.65;;;10.70;99.90;;;;;;4993594;28;20030;-74
2023/03/14 01:30:00;;;;;;;5.88;1.60;;;10.70;99.90;;;;;;4993444;28;20034;-74
2023/03/14 01:32:26;;;;;;;1.15;0.40;;;10.60;99.90;;;;;;4993248;28;20027;-74
2023/03/14 01:34:52;;;;;;;3.13;1.33;;;10.60;99.90;;;;;;4993622;28;20077;-74
2023/03/14 01:37:18;;;;;;;0.47;0.47;;;10.60;99.90;;;;;;4993186;28;20386;-74
2023/03/14 01:39:46;;;;;;;2.42;0.52;;;10.70;99.90;;;;;;4993570;28;20030;-74
2023/03/14 01:42:13;;;;;;;2.13;1.15;;;10.60;99.90;;;;;;4993161;28;20053;-74
2023/03/14 01:44:54;;;;;;;1.63;0.50;;;10.70;99.90;;;;;;4993329;28;20109;-74
2023/03/14 01:47:20;;;;;;;5.65;0.73;;;10.70;99.90;;;;;;4994036;28;20069;-74
2023/03/14 01:49:51;;;;;;;3.75;1.55;;;10.70;99.90;;;;;;4993099;28;20026;-74
2023/03/14 01:52:24;;;;;;;3.65;1.48;;;10.70;99.90;;;;;;4993055;28;20084;-74
2023/03/14 01:54:54;;;;;;;2.75;1.02;;;10.70;99.90;;;;;;4976925;28;20026;-74
2023/03/14 01:57:27;;;;;;;3.33;2.20;;;10.70;99.90;;;;;;4992975;28;20084;-74
2023/03/14 02:00:16;;;;;;;5.28;2.65;;;10.70;99.90;;;;;;4993097;28;20410;-75
2023/03/14 02:03:05;;;;;;;1.88;0.77;;;10.70;99.90;;;;;;4993905;28;20037;-74
2023/03/14 02:05:37;;;;;;;6.38;0.52;;;10.60;99.90;;;;;;4992452;28;20509;-74
2023/03/14 02:08:14;;;;;;;1.08;0.57;;;10.50;99.90;;;;;;4993104;28;20034;-74
2023/03/14 02:10:49;;;;;;;9.57;1.05;;;10.60;99.90;;;;;;4992788;28;20045;-74
2023/03/14 02:13:21;;;;;;;0.32;0.32;;;10.60;99.90;;;;;;4992834;28;20030;-74
2023/03/14 02:16:09;;;;;;;0.38;0.17;;;10.60;99.90;;;;;;4993557;28;20390;-75
2023/03/14 02:18:44;;;;;;;0.57;0.32;;;10.70;99.90;;;;;;4992463;28;20496;-75
2023/03/14 02:21:56;;;;;;;5.28;1.60;;;10.70;99.90;;;;;;4993535;28;20054;-75
2023/03/14 02:24:38;;;;;;;3.92;0.85;;;10.70;99.90;;;;;;4978067;28;20438;-75
2023/03/14 02:27:08;;;;;;;5.22;0.45;;;10.70;99.90;;;;;;4992236;28;20107;-75
2023/03/14 02:29:40;;;;;;;0.65;0.47;;;10.50;99.90;;;;;;4980849;28;20042;-75
2023/03/14 02:32:07;;;;;;;1.73;0.52;;;10.50;99.90;;;;;;4990828;28;20030;-75
2023/03/14 02:34:33;;;;;;;0.50;0.45;;;10.50;99.90;;;;;;4992579;28;20023;-74
2023/03/14 02:37:00;;;;;;;1.45;0.65;;;10.60;99.90;;;;;;4993496;28;20062;-74
2023/03/14 02:39:38;;;;;;;3.03;0.88;;;10.70;99.90;;;;;;4992472;28;20482;-75
2023/03/14 02:42:05;;;;;;;0.20;0.20;;;10.70;99.90;;;;;;4992399;28;20038;-74
2023/03/14 02:44:31;;;;;;;2.63;0.82;;;10.60;99.90;;;;;;4992285;28;20474;-75
2023/03/14 02:46:58;;;;;;;0.00;0.00;;;10.60;99.90;;;;;;4975652;28;20030;-74
2023/03/14 02:49:27;;;;;;;0.22;0.22;;;10.70;99.90;;;;;;4991975;28;20027;-74
2023/03/14 02:51:52;;;;;;;7.53;1.38;;;10.70;99.90;;;;;;4993297;28;20023;-74
2023/03/14 02:54:20;;;;;;;5.20;1.17;;;10.70;99.90;;;;;;4992320;28;20041;-74
2023/03/14 02:56:46;;;;;;;4.05;1.23;;;10.70;99.90;;;;;;4991980;28;20125;-75
2023/03/14 02:59:13;;;;;;;0.15;0.15;;;10.70;99.90;;;;;;4992064;28;20036;-74
2023/03/14 03:01:49;;;;;;;20.38;0.68;;;10.70;99.90;;;;;;4991871;28;20503;-74
2023/03/14 03:04:14;;;;;;;5.72;0.60;;;10.70;99.90;;;;;;4992299;28;20030;-74
2023/03/14 03:06:40;;;;;;;0.90;0.82;;;10.70;99.90;;;;;;4993093;28;20034;-75
2023/03/14 03:09:06;;;;;;;0.00;0.00;;;10.70;99.90;;;;;;4993164;28;20077;-74
2023/03/14 03:11:32;;;;;;;3.17;0.38;;;10.60;99.90;;;;;;4992173;28;20504;-75
2023/03/14 03:13:58;;;;;;;2.35;0.70;;;10.70;99.90;;;;;;4991523;28;20114;-74
2023/03/14 03:16:25;;;;;;;0.20;0.20;;;10.70;99.90;;;;;;4991822;28;20062;-75
2023/03/14 03:18:51;;;;;;;3.50;1.35;;;10.70;99.90;;;;;;4975619;28;20057;-74
2023/03/14 03:21:17;;;;;;;1.55;0.10;;;10.60;99.90;;;;;;4991818;28;20038;-74
2023/03/14 03:23:43;;;;;;;0.10;0.10;;;10.50;99.90;;;;;;4991729;28;20113;-74
2023/03/14 03:26:10;;;;;;;4.28;1.20;;;10.50;99.90;;;;;;4993159;28;20450;-74
2023/03/14 03:28:36;;;;;;;5.32;1.60;;;10.40;99.90;;;;;;4991468;28;20545;-74
2023/03/14 03:31:10;;;;;;;0.95;0.68;;;10.30;99.90;;;;;;4991415;28;20022;-74
2023/03/14 03:33:37;;;;;;;0.60;0.17;;;10.20;99.90;;;;;;4991825;28;20033;-74
2023/03/14 03:36:04;;;;;;;1.42;0.90;;;10.30;99.90;;;;;;4979305;28;20118;-75
2023/03/14 03:38:33;;;;;;;1.35;0.52;;;10.30;99.90;;;;;;4995565;28;20034;-74
2023/03/14 03:41:04;;;;;;;2.45;1.63;;;10.30;99.90;;;;;;4995399;28;20026;-74
2023/03/14 03:43:30;;;;;;;0.93;0.85;;;10.30;99.90;;;;;;4996390;28;20077;-74
2023/03/14 03:45:57;;;;;;;0.20;0.20;;;10.30;99.90;;;;;;4995401;28;20026;-74
2023/03/14 03:48:23;;;;;;;1.67;0.50;;;10.20;99.90;;;;;;4995250;28;20026;-74
2023/03/14 03:50:49;;;;;;;5.40;0.77;;;10.30;99.90;;;;;;4995412;28;20528;-74
2023/03/14 03:53:18;;;;;;;2.30;0.60;;;10.20;99.90;;;;;;4963873;28;20023;-75
2023/03/14 03:55:44;;;;;;;0.47;0.25;;;10.10;99.90;;;;;;4987835;28;20500;-74
2023/03/14 03:58:10;;;;;;;1.90;1.52;;;10.20;99.90;;;;;;4994620;28;20026;-74
2023/03/14 04:00:36;;;;;;;0.30;0.30;;;10.10;99.90;;;;;;4995142;28;20023;-75
2023/03/14 04:03:02;;;;;;;1.35;0.65;;;10.20;99.90;;;;;;4995186;28;20035;-75
2023/03/14 04:05:28;;;;;;;8.82;1.08;;;10.20;99.90;;;;;;4994976;28;20026;-75
2023/03/14 04:08:00;;;;;;;1.17;0.50;;;10.30;99.90;;;;;;4994994;28;20022;-74
2023/03/14 04:10:29;;;;;;;2.58;2.28;;;10.40;99.90;;;;;;4994926;28;20081;-75
2023/03/14 04:13:02;;;;;;;1.48;0.65;;;10.30;99.90;;;;;;4994716;28;20034;-75
2023/03/14 04:15:31;;;;;;;4.05;1.08;;;10.20;99.90;;;;;;4994741;28;20053;-75
2023/03/14 04:18:00;;;;;;;5.10;2.35;;;10.30;99.90;;;;;;4995059;28;20034;-75
2023/03/14 04:20:26;;;;;;;6.43;2.13;;;10.30;99.90;;;;;;4994663;28;20026;-75
2023/03/14 04:22:52;;;;;;;9.18;2.78;;;10.30;99.90;;;;;;4994982;28;20495;-75
2023/03/14 04:25:19;;;;;;;0.65;0.65;;;10.20;99.90;;;;;;4994564;28;20073;-74
2023/03/14 04:27:49;;;;;;;1.27;0.55;;;10.30;99.90;;;;;;4994424;28;20030;-75
2023/03/14 04:30:20;;;;;;;15.60;1.95;;;10.40;99.90;;;;;;4981775;28;20022;-74
2023/03/14 04:32:51;;;;;;;0.95;0.73;;;10.30;99.90;;;;;;4982693;28;20018;-75
2023/03/14 04:35:18;;;;;;;4.13;1.52;;;10.30;99.90;;;;;;4994491;28;20030;-75
2023/03/14 04:37:44;;;;;;;7.50;1.35;;;10.30;99.90;;;;;;4981102;28;20053;-74
2023/03/14 04:40:11;;;;;;;9.68;1.48;;;10.30;99.90;;;;;;4986041;28;20026;-75
2023/03/14 04:42:37;;;;;;;2.60;1.63;;;10.30;99.90;;;;;;4977853;28;20034;-74
2023/03/14 04:45:05;;;;;;;1.67;1.02;;;10.10;99.90;;;;;;4994450;28;20054;-75
2023/03/14 04:47:31;;;;;;;0.50;0.50;;;10.20;99.90;;;;;;4992928;28;20482;-75
2023/03/14 04:49:58;;;;;;;2.72;1.38;;;10.10;99.90;;;;;;4994217;28;20036;-75
2023/03/14 04:52:25;;;;;;;5.13;2.20;;;10.10;99.90;;;;;;4994401;28;20032;-75
2023/03/14 04:54:51;;;;;;;4.47;1.13;;;10.10;99.90;;;;;;4978294;28;20042;-75
2023/03/14 04:57:18;;;;;;;1.13;0.73;;;10.10;99.90;;;;;;4994009;28;20022;-75
2023/03/14 04:59:44;;;;;;;6.07;0.98;;;10.00;99.90;;;;;;4993991;28;20396;-75
2023/03/14 05:02:32;;;;;;;6.03;1.95;;;10.10;99.90;;;;;;4994260;28;20037;-75
2023/03/14 05:05:21;;;;;;;1.27;0.90;;;10.10;99.90;;;;;;4989498;28;20034;-75
2023/03/14 05:08:13;;;;;;;10.52;2.95;;;10.10;99.90;;;;;;4982259;28;20034;-75
2023/03/14 05:10:55;;;;;;;0.47;0.38;;;10.20;99.90;;;;;;4993533;28;20069;-75
2023/03/14 05:13:46;;;;;;;3.13;1.58;;;10.20;99.90;;;;;;4968104;28;20030;-75
2023/03/14 05:16:44;;;;;;;2.83;2.28;;;10.10;99.90;;;;;;4972481;28;20042;-75
2023/03/14 05:19:18;;;;;;;5.30;1.55;;;10.20;99.90;;;;;;4993511;28;20109;-75
2023/03/14 05:22:02;;;;;;;3.78;1.60;;;10.20;99.90;;;;;;4994027;28;20074;-75
2023/03/14 05:24:43;;;;;;;3.13;1.17;;;10.40;99.90;;;;;;4994785;28;20511;-74
2023/03/14 05:27:27;;;;;;;3.05;1.73;;;10.30;99.90;;;;;;4970480;28;20097;-74
2023/03/14 05:30:08;;;;;;;6.95;2.55;;;10.30;99.90;;;;;;4993158;28;20054;-74
2023/03/14 05:32:48;;;;;;;1.20;1.10;;;10.40;99.90;;;;;;4993474;28;20142;-75
2023/03/14 05:35:32;;;;;;;12.13;1.10;;;10.40;99.90;;;;;;4995038;28;20044;-75
2023/03/14 05:38:09;;;;;;;1.10;0.77;;;10.30;99.90;;;;;;4993546;28;20030;-74
2023/03/14 05:40:45;;;;;;;1.85;1.00;;;10.30;99.90;;;;;;4993963;28;20045;-75
2023/03/14 05:43:46;;;;;;;3.20;1.10;;;10.40;99.90;;;;;;4953814;28;20255;-75
2023/03/14 05:46:34;;;;;;;2.35;1.60;;;10.30;99.90;;;;;;4992091;28;20051;-75
2023/03/14 05:49:12;;;;;;;1.60;0.75;;;10.30;99.90;;;;;;4993050;28;20038;-74
2023/03/14 05:51:51;;;;;;;2.92;1.48;;;10.30;99.90;;;;;;4993175;28;20498;-75
2023/03/14 05:54:37;;;;;;;0.17;0.17;;;10.20;99.90;;;;;;4993731;28;20513;-74
2023/03/14 05:57:14;;;;;;;0.50;0.50;;;10.20;99.90;;;;;;4992850;28;20022;-74
2023/03/14 05:59:51;;;;;;;2.10;1.20;;;10.10;99.90;;;;;;4994156;28;20105;-74
2023/03/14 06:02:35;;;;;;;2.30;1.58;;;10.10;99.90;;;;;;4994120;28;20053;-74
2023/03/14 06:05:12;;;;;;;0.70;0.70;;;10.10;99.90;;;;;;4993272;28;20355;-75
2023/03/14 06:07:38;;;;;;;0.57;0.57;;;10.20;99.90;;;;;;4992862;28;20061;-74
2023/03/14 06:10:06;;;;;;;1.80;1.60;;;10.20;99.90;;;;;;4992621;28;20474;-74
2023/03/14 06:12:32;;;;;;;3.95;1.10;;;10.20;99.90;;;;;;4992826;28;20029;-75
2023/03/14 06:14:57;;;;;;;2.15;1.67;;;10.10;99.90;;;;;;4992799;28;20398;-74
2023/03/14 06:17:24;;;;;;;2.40;1.58;;;10.10;99.90;;;;;;4992740;28;20037;-73
2023/03/14 06:20:00;;;;;;;0.50;0.50;;;10.00;99.90;;;;;;4992476;28;20030;-74
2023/03/14 06:22:26;;;;;;;1.10;0.50;;;9.50;99.90;;;;;;4992377;28;20057;-74
2023/03/14 06:24:53;;;;;;;1.15;0.52;;;9.00;99.90;;;;;;4993581;28;20049;-74
2023/03/14 06:27:20;;;;;;;0.45;0.40;;;8.70;99.90;;;;;;4992170;28;20027;-74
2023/03/14 06:29:46;;;;;;;4.70;0.60;;;8.60;99.90;;;;;;4992474;28;20072;-74
2023/03/14 06:32:12;;;;;;;2.63;0.43;;;8.50;99.90;;;;;;4993401;28;20030;-74
2023/03/14 06:34:38;;;;;;;0.80;0.40;;;8.40;99.90;;;;;;4992574;28;20022;-74
2023/03/14 06:37:05;;;;;;;0.20;0.20;;;8.30;99.90;;;;;;4991961;28;20113;-74
2023/03/14 06:39:32;;;;;;;0.40;0.40;;;8.30;99.90;;;;;;4993412;28;20019;-73
2023/03/14 06:42:05;;;;;;;0.80;0.68;;;8.30;99.90;;;;;;4991753;28;20069;-74
2023/03/14 06:44:32;;;;;;;2.72;0.45;;;8.20;99.90;;;;;;4992092;28;20033;-74
2023/03/14 06:46:58;;;;;;;0.20;0.20;;;8.00;99.90;;;;;;4991835;28;20042;-73
2023/03/14 06:49:24;;;;;;;0.25;0.25;;;8.10;99.90;;;;;;4991856;28;20363;-74
2023/03/14 06:51:52;;;;;;;0.85;0.73;;;8.00;99.90;;;;;;4991784;28;20134;-74
2023/03/14 06:54:18;;;;;;;4.43;1.20;;;8.00;99.90;;;;;;4991406;28;20047;-74
2023/03/14 06:56:44;;;;;;;0.75;0.75;;;8.00;99.90;;;;;;4992417;28;20022;-74
2023/03/14 06:59:10;;;;;;;0.20;0.20;;;7.90;99.90;;;;;;4991530;28;20023;-74
2023/03/14 07:01:36;;;;;;;0.90;0.40;;;7.80;99.90;;;;;;4993214;28;20037;-74
2023/03/14 07:04:08;;;;;;;27.67;0.98;;;7.70;99.90;;;;;;4974392;28;20039;-74
2023/03/14 07:06:35;;;;;;;2.20;1.15;;;7.70;99.90;;;;;;4967857;28;20026;-74
2023/03/14 07:09:01;;;;;;;4.75;0.50;;;7.70;99.90;;;;;;4973544;28;20036;-74
2023/03/14 07:11:27;;;;;;;3.30;0.95;;;7.60;99.90;;;;;;4977357;28;20110;-73
2023/03/14 07:13:53;;;;;;;4.20;1.25;;;7.60;99.90;;;;;;4962232;28;20502;-73
2023/03/14 07:16:20;;;;;;;0.00;0.00;;;7.50;99.90;;;;;;4978076;28;20027;-73
2023/03/14 07:18:46;;;;;;;6.93;0.70;;;7.50;99.90;;;;;;4979131;28;20089;-74
2023/03/14 07:21:12;;;;;;;0.17;0.17;;;7.50;99.90;;;;;;4985984;28;20395;-73
2023/03/14 07:23:38;;;;;;;5.22;1.15;;;7.50;99.90;;;;;;4977320;28;20412;-73
2023/03/14 07:26:06;;;;;;;9.02;0.52;;;7.50;99.90;;;;;;4978362;28;20642;-74
2023/03/14 07:28:33;;;;;;;8.60;0.60;;;7.50;99.90;;;;;;4977888;28;20045;-74
2023/03/14 07:31:04;;;;;;;6.93;0.33;;;7.40;99.90;;;;;;4978077;28;20041;-74
2023/03/14 07:33:31;;;;;;;0.22;0.22;;;7.40;99.90;;;;;;4992643;28;20106;-74
2023/03/14 07:35:57;;;;;;;0.15;0.15;;;7.50;99.90;;;;;;4973261;28;20117;-74
2023/03/14 07:38:23;;;;;;;0.20;0.20;;;7.50;99.90;;;;;;4996157;28;20026;-74
2023/03/14 07:41:18;;;;;;;4.60;0.80;;;7.50;99.90;;;;;;4937724;28;20052;-74
2023/03/14 07:44:03;;;;;;;0.22;0.22;;;7.60;99.90;;;;;;4975328;28;20123;-73
2023/03/14 07:46:28;;;;;;;3.30;0.98;;;7.60;99.90;;;;;;4970497;28;20101;-74
2023/03/14 07:48:54;;;;;;;2.10;0.47;;;7.70;99.90;;;;;;4979108;28;20060;-74
2023/03/14 07:51:20;;;;;;;1.48;0.77;;;7.50;99.90;;;;;;4978956;28;20038;-74
2023/03/14 07:53:46;;;;;;;0.52;0.52;;;7.50;99.90;;;;;;4979255;28;20027;-75
2023/03/14 07:56:12;;;;;;;2.90;0.30;;;7.60;99.90;;;;;;4979030;28;20014;-75
2023/03/14 07:58:37;;;;;;;2.78;0.52;;;7.60;99.90;;;;;;4979017;28;20418;-74
2023/03/14 08:01:03;;;;;;;1.13;0.68;;;7.60;99.90;;;;;;4978760;28;20038;-74
2023/03/14 08:03:29;;;;;;;0.10;0.10;;;7.60;99.90;;;;;;4979692;28;20026;-75
2023/03/14 08:05:55;;;;;;;2.75;0.80;;;7.70;99.90;;;;;;4978814;28;20382;-75
2023/03/14 08:08:20;;;;;;;7.95;0.45;;;7.80;99.90;;;;;;4978594;28;20027;-74
2023/03/14 08:10:46;;;;;;;2.22;0.68;;;7.80;99.90;;;;;;4972823;28;20157;-74
2023/03/14 08:13:12;;;;;;;2.95;0.40;;;7.80;99.90;;;;;;4976831;28;20045;-74
2023/03/14 08:15:38;;;;;;;0.20;0.20;;;7.80;99.90;;;;;;4977675;28;20483;-74
2023/03/14 08:18:05;;;;;;;4.20;0.95;;;7.80;99.90;;;;;;4975904;28;20034;-75
2023/03/14 08:20:31;;;;;;;6.90;1.23;;;7.80;99.90;;;;;;4975915;28;20038;-74
2023/03/14 08:23:01;;;;;;;0.70;0.38;;;7.70;99.90;;;;;;4975421;28;20031;-74
2023/03/14 08:25:27;;;;;;;0.45;0.20;;;7.80;99.90;;;;;;4975837;28;20031;-74
2023/03/14 08:27:53;;;;;;;2.80;0.75;;;7.90;99.90;;;;;;4974364;28;20037;-74
2023/03/14 08:30:20;;;;;;;0.57;0.35;;;7.90;99.90;;;;;;4975176;28;20359;-74
2023/03/14 08:32:46;;;;;;;1.00;0.63;;;7.70;99.90;;;;;;4975512;28;20042;-74
2023/03/14 08:35:12;;;;;;;7.22;0.95;;;7.70;99.90;;;;;;4977910;28;20037;-75
2023/03/14 08:37:37;;;;;;;0.52;0.30;;;7.60;99.90;;;;;;4983331;28;20026;-74
2023/03/14 08:40:09;;;;;;;0.10;0.10;;;7.80;99.90;;;;;;4988888;28;20018;-75
2023/03/14 08:42:36;;;;;;;;;;;7.80;99.90;;;;;;4984982;28;20038;-74
2023/03/14 08:45:02;;;;;;;7.13;1.35;;;7.80;99.90;;;;;;4988119;28;19925;-74
2023/03/14 08:47:28;;;;;;;0.20;0.20;;;7.90;99.90;;;;;;4973893;28;20041;-74
2023/03/14 08:49:54;;;;;;;3.92;0.63;;;7.70;99.90;;;;;;4984603;28;20756;-74
2023/03/14 08:52:19;;;;;;;0.30;0.30;;;7.50;99.90;;;;;;4968343;28;20030;-74
2023/03/14 08:54:45;;;;;;;1.00;0.30;;;7.60;99.90;;;;;;4975094;28;20054;-75
2023/03/14 08:57:11;;;;;;;5.78;0.32;;;7.50;99.90;;;;;;4969664;28;20038;-74
2023/03/14 08:59:37;;;;;;;8.30;0.52;;;7.50;99.90;;;;;;4970083;28;20027;-74
2023/03/14 09:02:05;;;;;;;0.22;0.22;;;7.40;99.90;;;;;;4966063;28;20043;-73
2023/03/14 09:04:32;;;;;;;2.08;1.00;;;7.30;99.90;;;;;;4970965;28;20467;-73
2023/03/14 09:06:59;;;;;;;0.38;0.38;;;7.30;99.90;;;;;;4970576;28;20037;-73
2023/03/14 09:09:26;;;;;;;1.25;0.52;;;7.30;99.90;;;;;;4972537;28;20030;-74
2023/03/14 09:11:52;;;;;;;0.22;0.20;;;7.20;99.90;;;;;;4973817;28;20015;-73
2023/03/14 09:14:18;;;;;;;0.90;0.10;;;7.20;99.90;;;;;;4974881;28;20106;-73
2023/03/14 09:16:44;;;;;;;3.40;1.45;;;7.30;99.90;;;;;;4974318;28;20467;-73
2023/03/14 09:19:10;;;;;;;3.20;0.22;;;7.40;99.90;;;;;;4974831;28;20379;-73
2023/03/14 09:21:36;;;;;;;0.20;0.20;;;7.40;99.90;;;;;;4974771;28;20414;-72
2023/03/14 09:24:02;;;;;;;1.30;0.50;;;7.40;99.90;;;;;;4974684;28;20030;-73
2023/03/14 09:26:27;;;;;;;0.10;0.10;;;7.30;99.90;;;;;;4974161;28;20023;-74
2023/03/14 09:28:53;;;;;;;1.17;0.50;;;7.40;99.90;;;;;;4973331;28;20030;-74
2023/03/14 09:31:19;;;;;;;0.20;0.20;;;7.10;99.90;;;;;;4974048;28;20053;-73
2023/03/14 09:33:45;;;;;;;1.25;0.35;;;7.10;99.90;;;;;;4973158;28;20034;-73
2023/03/14 09:36:10;;;;;;;0.00;0.00;;;7.10;99.90;;;;;;4980769;28;20030;-74
2023/03/14 09:38:36;;;;;;;0.30;0.30;;;7.20;99.90;;;;;;4981895;28;20026;-74
2023/03/14 09:41:12;;;;;;;0.85;0.30;;;7.20;99.90;;;;;;4987221;28;20030;-73
2023/03/14 09:43:38;;;;;;;0.80;0.60;;;7.20;99.90;;;;;;4992600;28;20406;-74
2023/03/14 09:46:05;;;;;;;0.40;0.40;;;7.20;99.90;;;;;;4980436;28;20113;-73
2023/03/14 09:48:32;;;;;;;0.10;0.10;;;7.20;99.90;;;;;;4980482;28;20085;-74
2023/03/14 09:51:04;;;;;;;0.30;0.30;;;7.20;99.90;;;;;;4973726;28;20050;-74
2023/03/14 09:53:45;;;;;;;0.10;0.10;;;7.40;99.90;;;;;;4990717;28;20037;-73
2023/03/14 09:56:18;;;;;;;0.00;0.00;;;7.40;99.90;;;;;;4992664;28;20034;-74
2023/03/14 09:58:48;;;;;;;11.98;1.02;;;7.70;99.90;;;;;;4978544;28;20085;-74
2023/03/14 10:01:20;;;;;;;0.32;0.32;;;7.60;99.90;;;;;;4968312;28;20530;-74
2023/03/14 10:03:47;;;;;;;1.20;1.10;;;7.70;99.90;;;;;;4968904;28;20077;-74
2023/03/14 10:06:13;;;;;;;3.20;0.95;;;8.00;99.90;;;;;;4970132;28;20526;-74
2023/03/14 10:08:43;;;;;;;0.85;0.52;;;7.70;99.90;;;;;;4972927;28;20074;-74
2023/03/14 10:11:18;;;;;;;0.57;0.43;;;7.60;99.90;;;;;;4969666;28;20145;-74
2023/03/14 10:13:57;;;;;;;0.57;0.32;;;7.50;99.90;;;;;;4973897;28;20033;-75
2023/03/14 10:16:29;;;;;;;2.50;0.57;;;7.60;99.90;;;;;;4972266;28;20475;-73
2023/03/14 10:19:06;;;;;;;0.10;0.10;;;7.70;99.90;;;;;;4973016;28;20050;-73
2023/03/14 10:21:38;;;;;;;0.35;0.35;;;7.90;99.90;;;;;;4973566;28;20057;-73
2023/03/14 10:24:26;;;;;;;;;;;8.20;99.90;;;;;;4974221;28;20109;-73
2023/03/14 10:26:54;;;;;;;0.77;0.47;;;8.20;99.90;;;;;;4970127;28;19910;-73
2023/03/14 10:29:21;;;;;;;1.30;0.30;;;8.20;99.90;;;;;;4972179;28;20023;-73
2023/03/14 10:31:57;;;;;;;0.85;0.20;;;8.20;99.90;;;;;;4983936;28;20030;-73
2023/03/14 10:34:31;;;;;;;0.15;0.15;;;8.20;99.90;;;;;;4977827;28;20418;-73
2023/03/14 10:37:05;;;;;;;0.15;0.15;;;8.30;99.90;;;;;;4971864;28;20027;-72
2023/03/14 10:39:57;;;;;;;0.65;0.63;;;8.60;99.90;;;;;;4984133;28;20037;-72
2023/03/14 10:42:31;;;;;;;0.00;0.00;;;8.70;99.90;;;;;;4978775;28;20138;-72
2023/03/14 10:45:07;;;;;;;0.80;0.63;;;8.90;99.90;;;;;;4975949;28;20039;-72
2023/03/14 10:47:33;;;;;;;1.77;0.90;;;8.90;99.90;;;;;;4968126;28;20062;-73
2023/03/14 10:50:30;;;;;;;2.17;0.40;;;8.90;99.90;;;;;;4971230;28;20019;-72
2023/03/14 10:53:00;;;;;;;0.15;0.15;;;8.70;99.90;;;;;;4971797;28;20026;-72
2023/03/14 10:55:26;;;;;;;0.00;0.00;;;9.00;99.90;;;;;;4973049;28;20494;-72
2023/03/14 10:57:52;;;;;;;0.35;0.35;;;9.20;99.90;;;;;;4971924;28;20034;-73
2023/03/14 11:00:21;;;;;;;6.50;1.38;;;9.10;99.90;;;;;;4972685;28;20081;-72
2023/03/14 11:03:12;;;;;;;0.10;0.10;;;9.10;99.90;;;;;;4971985;28;20139;-73
2023/03/14 11:05:47;;;;;;;0.10;0.10;;;9.20;99.90;;;;;;4973284;28;20031;-72
2023/03/14 11:08:41;;;;;;;1.30;0.20;;;9.20;99.90;;;;;;4972850;28;20364;-73
2023/03/14 11:11:30;;;;;;;1.55;0.45;;;9.40;99.90;;;;;;4972929;28;20049;-73
2023/03/14 11:14:13;;;;;;;1.55;1.45;;;8.90;99.90;;;;;;4969798;28;20050;-72
2023/03/14 11:16:42;;;;;;;2.78;0.60;;;8.80;99.90;;;;;;4984885;28;20046;-72
2023/03/14 11:19:28;;;;;;;0.32;0.32;;;8.30;99.90;;;;;;4972595;28;20571;-72
2023/03/14 11:22:05;;;;;;;1.27;0.40;;;8.00;99.90;;;;;;4969198;28;20070;-72
2023/03/14 11:24:42;;;;;;;1.10;0.57;;;7.70;99.90;;;;;;4971885;28;20031;-74
2023/03/14 11:27:29;;;;;;;0.05;0.05;;;7.70;99.90;;;;;;4971102;28;20384;-72
2023/03/14 11:30:18;;;;;;;0.50;0.43;;;7.80;99.90;;;;;;4972769;28;20041;-74
2023/03/14 11:33:12;;;;;;;5.47;2.65;;;8.00;99.90;;;;;;4984793;28;20055;-73
2023/03/14 11:36:00;;;;;;;0.00;0.00;;;8.10;99.90;;;;;;4974658;28;20130;-74
2023/03/14 11:38:35;;;;;;;0.22;0.22;;;8.70;99.90;;;;;;4981128;28;20084;-74
2023/03/14 11:41:01;;;;;;;0.75;0.60;;;9.10;99.90;;;;;;4985327;28;20394;-72
2023/03/14 11:43:34;;;;;;;4.88;0.85;;;9.40;99.90;;;;;;4991609;28;20040;-72
2023/03/14 11:46:13;;;;;;;0.20;0.20;;;9.70;99.90;;;;;;4991397;28;20142;-74
2023/03/14 11:49:04;;;;;;;2.90;1.20;;;9.80;99.90;;;;;;4990477;28;20074;-72
2023/03/14 11:51:37;;;;;;;1.45;0.20;;;9.50;99.90;;;;;;4992720;28;20026;-72
2023/03/14 11:54:20;;;;;;;1.75;0.45;;;9.40;99.90;;;;;;4992642;28;20045;-71
2023/03/14 11:56:52;;;;;;;0.40;0.38;;;9.20;99.90;;;;;;4969859;28;20022;-72
2023/03/14 11:59:55;;;;;;;0.10;0.10;;;9.20;99.90;;;;;;4996340;28;20089;-74
2023/03/14 12:02:43;;;;;;;8.27;0.93;;;9.30;99.90;;;;;;4977999;28;20035;-71
2023/03/14 12:05:41;;;;;;;2.78;0.95;;;9.20;99.90;;;;;;4996088;28;20026;-71
2023/03/14 12:08:07;;;;;;;0.65;0.43;;;8.80;99.90;;;;;;4996097;28;20038;-72
2023/03/14 12:10:53;;;;;;;0.75;0.55;;;8.70;99.90;;;;;;4995962;28;20026;-72
2023/03/14 12:13:19;;;;;;;3.72;1.30;;;8.60;99.90;;;;;;4994719;28;20030;-71
2023/03/14 12:15:54;;;;;;;2.13;1.20;;;8.40;99.90;;;;;;4996097;28;20026;-72
2023/03/14 12:18:41;;;;;;;0.30;0.30;;;8.00;99.90;;;;;;4996171;28;20042;-72
2023/03/14 12:21:12;;;;;;;8.35;2.63;;;8.10;99.90;;;;;;4996100;28;20038;-72
2023/03/14 12:23:54;;;;;;;37.63;3.13;;;8.00;99.90;;;;;;4994497;28;20026;-72
2023/03/14 12:26:21;;;;;;;;;;;8.10;99.90;;;;;;4995958;28;20536;-72
2023/03/14 12:29:11;;;;;;;0.00;0.00;;;8.20;99.90;;;;;;4994825;28;20274;-71
2023/03/14 12:32:07;;;;;;;0.00;0.00;;;8.40;99.90;;;;;;4995513;28;20050;-72
2023/03/14 12:34:41;;;;;;;1.30;1.25;;;8.60;99.90;;;;;;4986332;28;20034;-72
2023/03/14 12:37:35;;;;;;;0.57;0.57;;;9.00;99.90;;;;;;4994647;28;20034;-72
2023/03/14 12:40:13;;;;;;;0.05;0.05;;;8.90;99.90;;;;;;4989982;28;20506;-72
2023/03/14 12:42:50;;;;;;;0.20;0.20;;;8.70;99.90;;;;;;4995653;28;20047;-73
2023/03/14 12:45:28;;;;;;;5.82;1.00;;;8.90;99.90;;;;;;4995363;28;20038;-71
2023/03/14 12:48:18;;;;;;;11.45;2.17;;;8.50;99.90;;;;;;4995215;28;20121;-71
2023/03/14 12:51:05;;;;;;;7.57;0.63;;;8.50;99.90;;;;;;4995495;28;20030;-73
2023/03/14 12:53:50;;;;;;;6.60;1.55;;;8.60;99.90;;;;;;4971990;28;20034;-72
2023/03/14 12:56:27;;;;;;;6.97;1.05;;;8.70;99.90;;;;;;4994719;28;20062;-71
2023/03/14 12:59:10;;;;;;;9.07;0.55;;;8.90;99.90;;;;;;4995418;28;20027;-72
2023/03/14 13:01:44;;;;;;;9.35;0.95;;;8.70;99.90;;;;;;4992392;28;20042;-73
2023/03/14 13:04:11;;;;;;;6.63;1.25;;;8.70;99.90;;;;;;4995648;28;20056;-73
2023/03/14 13:06:59;;;;;;;2.75;0.82;;;8.70;99.90;;;;;;4994320;28;20117;-73
2023/03/14 13:09:32;;;;;;;0.13;0.10;;;8.60;99.90;;;;;;4995052;28;20118;-74
2023/03/14 13:12:08;;;;;;;0.10;0.10;;;8.60;99.90;;;;;;4995094;28;20034;-73
2023/03/14 13:14:35;;;;;;;15.35;2.63;;;8.70;99.90;;;;;;4993860;28;20037;-73
2023/03/14 13:17:02;;;;;;;0.63;0.32;;;8.70;99.90;;;;;;4994870;28;20050;-73